Time;durP1;ratioP1;P1;durP2;ratioP2;P2;SDS_P1;SDS_P2;PMS_P1;PMS_P2;Temp;Humidity;BMP_temperature;BMP_pressure;BME280_temperature;BME280_humidity;BME280_pressure;Samples;Min_cycle;Max_cycle;Signal;HPM_P1;HPM_P2
2021/04/03 00:01:48;;;;;;;55.80;16.65;;;;;;;;;;5114867;28;20023;-66
2021/04/03 00:04:13;;;;;;;48.25;16.55;;;;;;;;;;5114588;28;20468;-66
2021/04/03 00:06:38;;;;;;;48.58;15.15;;;;;;;;;;5114695;28;20031;-66
2021/04/03 00:09:04;;;;;;;56.17;18.33;;;;;;;;;;5114739;28;20357;-65
2021/04/03 00:11:29;;;;;;;51.33;17.48;;;;;;;;;;5114676;28;20028;-65
2021/04/03 00:13:54;;;;;;;53.47;17.58;;;;;;;;;;5114476;28;20459;-66
2021/04/03 00:16:19;;;;;;;54.72;15.88;;;;;;;;;;5114680;28;20016;-66
2021/04/03 00:18:45;;;;;;;41.38;15.90;;;;;;;;;;5114402;28;20507;-66
2021/04/03 00:21:11;;;;;;;46.47;14.93;;;;;;;;;;5114481;28;20118;-66
2021/04/03 00:23:37;;;;;;;49.38;16.63;;;;;;;;;;5114419;28;20156;-66
2021/04/03 00:26:02;;;;;;;42.70;15.52;;;;;;;;;;5114503;28;20031;-66
2021/04/03 00:28:27;;;;;;;49.80;15.85;;;;;;;;;;5114234;28;20031;-66
2021/04/03 00:30:52;;;;;;;46.83;15.95;;;;;;;;;;5114315;28;20019;-65
2021/04/03 00:33:18;;;;;;;40.25;14.70;;;;;;;;;;5114224;28;20496;-65
2021/04/03 00:35:46;;;;;;;41.42;14.85;;;;;;;;;;5114273;28;20043;-66
2021/04/03 00:38:11;;;;;;;49.58;17.02;;;;;;;;;;5114041;28;20100;-66
2021/04/03 00:40:38;;;;;;;54.33;15.38;;;;;;;;;;5114121;28;20027;-65
2021/04/03 00:43:05;;;;;;;43.47;14.68;;;;;;;;;;5113931;28;20425;-65
2021/04/03 00:45:30;;;;;;;45.97;15.38;;;;;;;;;;5114073;28;20016;-65
2021/04/03 00:47:55;;;;;;;44.35;15.20;;;;;;;;;;5114054;28;20081;-65
2021/04/03 00:50:22;;;;;;;41.42;15.52;;;;;;;;;;5113298;28;20031;-66
2021/04/03 00:52:48;;;;;;;38.88;14.13;;;;;;;;;;5114030;28;20107;-66
2021/04/03 00:55:13;;;;;;;40.10;14.10;;;;;;;;;;5113644;28;20131;-66
2021/04/03 00:57:39;;;;;;;39.75;14.20;;;;;;;;;;5113423;28;20082;-66
2021/04/03 01:00:05;;;;;;;51.42;16.20;;;;;;;;;;5113632;28;20019;-65
2021/04/03 01:02:30;;;;;;;46.13;14.10;;;;;;;;;;5113565;28;20036;-66
2021/04/03 01:04:56;;;;;;;47.95;14.68;;;;;;;;;;5113613;28;20070;-65
2021/04/03 01:07:21;;;;;;;37.72;13.88;;;;;;;;;;5113728;28;20008;-65
2021/04/03 01:09:46;;;;;;;39.97;13.70;;;;;;;;;;5113611;28;20084;-65
2021/04/03 01:12:30;;;;;;;37.45;13.43;;;;;;;;;;5113754;28;20036;-65
2021/04/03 01:15:10;;;;;;;44.00;14.05;;;;;;;;;;5113539;28;20028;-65
2021/04/03 01:17:45;;;;;;;44.90;14.82;;;;;;;;;;5095424;28;20382;-66
2021/04/03 01:20:19;;;;;;;44.88;14.77;;;;;;;;;;5113647;28;20043;-65
2021/04/03 01:22:54;;;;;;;43.00;13.45;;;;;;;;;;5095176;28;20503;-65
2021/04/03 01:25:31;;;;;;;49.15;14.82;;;;;;;;;;5113626;28;20032;-65
2021/04/03 01:27:59;;;;;;;42.75;13.80;;;;;;;;;;5113508;28;20066;-66
2021/04/03 01:30:26;;;;;;;42.90;14.88;;;;;;;;;;5113443;28;20164;-66
2021/04/03 01:33:13;;;;;;;42.63;14.85;;;;;;;;;;5113155;28;20528;-66
2021/04/03 01:35:44;;;;;;;48.83;13.70;;;;;;;;;;5113608;28;20024;-65
2021/04/03 01:38:11;;;;;;;40.25;14.23;;;;;;;;;;5113421;28;20044;-66
2021/04/03 01:40:37;;;;;;;44.40;14.85;;;;;;;;;;5113395;28;20020;-65
2021/04/03 01:43:06;;;;;;;51.03;13.77;;;;;;;;;;5113071;28;20483;-66
2021/04/03 01:45:32;;;;;;;42.63;13.80;;;;;;;;;;5113287;28;20024;-65
2021/04/03 01:47:58;;;;;;;37.45;13.13;;;;;;;;;;5113366;28;20080;-65
2021/04/03 01:50:25;;;;;;;33.78;13.20;;;;;;;;;;5113165;28;20027;-66
2021/04/03 01:52:50;;;;;;;39.53;13.43;;;;;;;;;;5113463;28;20034;-65
2021/04/03 01:55:16;;;;;;;44.70;14.60;;;;;;;;;;5102936;28;20020;-66
2021/04/03 01:57:45;;;;;;;41.30;13.63;;;;;;;;;;5092729;28;20457;-65
2021/04/03 02:00:11;;;;;;;38.72;13.80;;;;;;;;;;5092027;28;20036;-65
2021/04/03 02:02:38;;;;;;;45.65;14.27;;;;;;;;;;5094124;28;20424;-65
2021/04/03 02:05:04;;;;;;;50.92;14.90;;;;;;;;;;5096752;28;20034;-65
2021/04/03 02:07:29;;;;;;;41.25;15.57;;;;;;;;;;5096773;28;20032;-65
2021/04/03 02:09:55;;;;;;;44.83;14.18;;;;;;;;;;5096549;28;20067;-66
2021/04/03 02:12:20;;;;;;;39.05;14.02;;;;;;;;;;5097123;28;20020;-65
2021/04/03 02:14:47;;;;;;;41.38;13.25;;;;;;;;;;5096302;28;20387;-66
2021/04/03 02:17:13;;;;;;;50.53;14.85;;;;;;;;;;5096734;28;20052;-65
2021/04/03 02:19:40;;;;;;;39.03;13.52;;;;;;;;;;5095976;28;20556;-66
2021/04/03 02:22:05;;;;;;;33.20;11.98;;;;;;;;;;5096409;28;20044;-65
2021/04/03 02:24:31;;;;;;;41.25;13.82;;;;;;;;;;5096376;28;20020;-65
2021/04/03 02:26:57;;;;;;;47.75;12.18;;;;;;;;;;5096422;28;20064;-66
2021/04/03 02:29:22;;;;;;;36.08;11.48;;;;;;;;;;5095988;28;20028;-65
2021/04/03 02:31:48;;;;;;;37.00;12.80;;;;;;;;;;5096198;28;20099;-66
2021/04/03 02:34:13;;;;;;;35.20;11.30;;;;;;;;;;5095872;28;20495;-65
2021/04/03 02:36:38;;;;;;;30.98;11.93;;;;;;;;;;5096050;28;20086;-66
2021/04/03 02:39:04;;;;;;;32.92;11.85;;;;;;;;;;5095785;28;20140;-66
2021/04/03 02:41:43;;;;;;;25.77;11.30;;;;;;;;;;5095942;28;20036;-66
2021/04/03 02:44:08;;;;;;;23.20;10.57;;;;;;;;;;5095509;28;20462;-66
2021/04/03 02:46:45;;;;;;;28.55;10.35;;;;;;;;;;5096088;28;20071;-66
2021/04/03 02:49:19;;;;;;;37.92;9.73;;;;;;;;;;5095770;28;20028;-66
2021/04/03 02:51:46;;;;;;;25.33;9.85;;;;;;;;;;5095645;28;20407;-66
2021/04/03 02:54:13;;;;;;;27.58;9.10;;;;;;;;;;5095606;28;20036;-66
2021/04/03 02:56:40;;;;;;;31.02;10.65;;;;;;;;;;5095660;28;20024;-66
2021/04/03 02:59:11;;;;;;;28.58;10.45;;;;;;;;;;5095511;28;20034;-66
2021/04/03 03:01:36;;;;;;;31.20;9.85;;;;;;;;;;5095684;28;20036;-66
2021/04/03 03:04:01;;;;;;;28.38;9.57;;;;;;;;;;5095867;28;20019;-65
2021/04/03 03:06:30;;;;;;;34.88;10.57;;;;;;;;;;5095608;28;20506;-66
2021/04/03 03:08:55;;;;;;;27.17;9.93;;;;;;;;;;5095341;28;20085;-66
2021/04/03 03:11:22;;;;;;;27.55;10.25;;;;;;;;;;5095550;28;20486;-66
2021/04/03 03:13:48;;;;;;;29.42;9.75;;;;;;;;;;5094155;28;20031;-65
2021/04/03 03:16:14;;;;;;;28.98;10.85;;;;;;;;;;5095456;28;20036;-66
2021/04/03 03:18:40;;;;;;;35.75;9.23;;;;;;;;;;5095254;28;20020;-65
2021/04/03 03:21:06;;;;;;;25.42;9.00;;;;;;;;;;5095384;28;20024;-66
2021/04/03 03:23:31;;;;;;;23.77;9.48;;;;;;;;;;5095202;28;20077;-66
2021/04/03 03:25:57;;;;;;;29.33;10.52;;;;;;;;;;5095191;28;20055;-66
2021/04/03 03:28:23;;;;;;;34.40;9.85;;;;;;;;;;5095206;28;20028;-66
2021/04/03 03:30:48;;;;;;;31.10;9.77;;;;;;;;;;5094994;28;20036;-65
2021/04/03 03:33:14;;;;;;;29.38;9.82;;;;;;;;;;5095200;28;20376;-65
2021/04/03 03:35:39;;;;;;;34.38;10.25;;;;;;;;;;5094818;28;20032;-66
2021/04/03 03:38:05;;;;;;;32.92;9.68;;;;;;;;;;5094900;28;20056;-66
2021/04/03 03:40:31;;;;;;;30.65;10.27;;;;;;;;;;5094780;28;20436;-65
2021/04/03 03:42:56;;;;;;;33.50;10.93;;;;;;;;;;5094837;28;20040;-65
2021/04/03 03:45:22;;;;;;;33.53;9.90;;;;;;;;;;5094703;28;20032;-66
2021/04/03 03:47:47;;;;;;;41.83;10.60;;;;;;;;;;5094844;28;20345;-65
2021/04/03 03:50:12;;;;;;;33.17;10.05;;;;;;;;;;5094672;28;20423;-66
2021/04/03 03:52:38;;;;;;;40.78;10.98;;;;;;;;;;5094788;28;20036;-65
2021/04/03 03:55:04;;;;;;;40.40;10.50;;;;;;;;;;5094409;28;20027;-66
2021/04/03 03:57:29;;;;;;;38.70;10.20;;;;;;;;;;5094331;28;20024;-66
2021/04/03 03:59:54;;;;;;;44.83;10.52;;;;;;;;;;5094084;28;20028;-66
2021/04/03 04:02:19;;;;;;;32.58;9.77;;;;;;;;;;5094276;28;20035;-65
2021/04/03 04:04:45;;;;;;;37.85;9.95;;;;;;;;;;5094325;28;20032;-66
2021/04/03 04:07:10;;;;;;;42.80;12.00;;;;;;;;;;5094025;28;20077;-65
2021/04/03 04:09:36;;;;;;;33.20;10.77;;;;;;;;;;5094103;28;20009;-65
2021/04/03 04:12:07;;;;;;;47.08;10.57;;;;;;;;;;5094259;28;20042;-65
2021/04/03 04:14:33;;;;;;;35.13;10.35;;;;;;;;;;5094206;28;20345;-65
2021/04/03 04:16:58;;;;;;;36.92;11.10;;;;;;;;;;5094202;28;20073;-65
2021/04/03 04:19:23;;;;;;;36.13;11.40;;;;;;;;;;5094003;28;20125;-66
2021/04/03 04:21:49;;;;;;;37.20;10.88;;;;;;;;;;5094068;28;20043;-65
2021/04/03 04:24:14;;;;;;;32.88;10.60;;;;;;;;;;5093998;28;20012;-65
2021/04/03 04:26:39;;;;;;;32.10;9.57;;;;;;;;;;5093842;28;20116;-65
2021/04/03 04:29:04;;;;;;;52.05;11.90;;;;;;;;;;5093656;28;20035;-65
2021/04/03 04:31:30;;;;;;;33.75;10.95;;;;;;;;;;5094016;28;20031;-65
2021/04/03 04:33:55;;;;;;;37.22;11.48;;;;;;;;;;5093826;28;20028;-65
2021/04/03 04:36:20;;;;;;;35.80;10.15;;;;;;;;;;5094014;28;20043;-65
2021/04/03 04:38:45;;;;;;;35.75;10.77;;;;;;;;;;5093336;28;20126;-65
2021/04/03 04:41:11;;;;;;;35.40;10.95;;;;;;;;;;5093851;28;20032;-65
2021/04/03 04:43:36;;;;;;;32.33;10.48;;;;;;;;;;5094108;28;20032;-65
2021/04/03 04:46:01;;;;;;;41.63;11.18;;;;;;;;;;5093697;28;20058;-65
2021/04/03 04:48:27;;;;;;;33.30;11.18;;;;;;;;;;5093686;28;20024;-65
2021/04/03 04:50:52;;;;;;;35.75;12.13;;;;;;;;;;5093633;28;20028;-65
2021/04/03 04:53:17;;;;;;;35.13;11.13;;;;;;;;;;5093553;28;20092;-66
2021/04/03 04:55:43;;;;;;;39.33;11.57;;;;;;;;;;5093409;28;20472;-65
2021/04/03 04:58:08;;;;;;;40.90;10.75;;;;;;;;;;5093259;28;20028;-65
2021/04/03 05:00:33;;;;;;;31.10;10.07;;;;;;;;;;5093819;28;20107;-65
2021/04/03 05:02:58;;;;;;;46.60;10.95;;;;;;;;;;5093379;28;20047;-66
2021/04/03 05:05:24;;;;;;;34.20;10.30;;;;;;;;;;5093478;28;20036;-65
2021/04/03 05:07:49;;;;;;;41.80;10.45;;;;;;;;;;5093027;28;20031;-65
2021/04/03 05:10:14;;;;;;;30.88;9.93;;;;;;;;;;5093366;28;20090;-65
2021/04/03 05:12:39;;;;;;;50.83;11.60;;;;;;;;;;5093051;28;20036;-65
2021/04/03 05:15:05;;;;;;;33.17;9.55;;;;;;;;;;5093277;28;20099;-65
2021/04/03 05:17:30;;;;;;;41.70;11.40;;;;;;;;;;5093437;28;20060;-65
2021/04/03 05:19:56;;;;;;;40.38;11.05;;;;;;;;;;5093168;28;20403;-65
2021/04/03 05:22:21;;;;;;;47.78;12.20;;;;;;;;;;5093156;28;20035;-66
2021/04/03 05:24:46;;;;;;;40.50;11.50;;;;;;;;;;5092762;28;20032;-66
2021/04/03 05:27:12;;;;;;;53.95;12.55;;;;;;;;;;5093305;28;20032;-65
2021/04/03 05:29:37;;;;;;;41.00;12.07;;;;;;;;;;5093132;28;20024;-66
2021/04/03 05:32:02;;;;;;;38.70;11.10;;;;;;;;;;5092979;28;20028;-65
2021/04/03 05:34:28;;;;;;;36.90;10.85;;;;;;;;;;5093376;28;20101;-66
2021/04/03 05:36:53;;;;;;;38.28;11.48;;;;;;;;;;5093592;28;20099;-65
2021/04/03 05:39:18;;;;;;;41.78;11.13;;;;;;;;;;5097274;28;20449;-66
2021/04/03 05:41:43;;;;;;;41.72;10.50;;;;;;;;;;5097073;28;20032;-66
2021/04/03 05:44:09;;;;;;;38.05;10.75;;;;;;;;;;5097153;28;20159;-65
2021/04/03 05:46:36;;;;;;;32.75;10.05;;;;;;;;;;5096845;28;20028;-66
2021/04/03 05:49:01;;;;;;;30.13;9.82;;;;;;;;;;5096980;28;20062;-66
2021/04/03 05:51:27;;;;;;;35.50;9.13;;;;;;;;;;5097098;28;20052;-66
2021/04/03 05:53:52;;;;;;;26.98;7.93;;;;;;;;;;5096605;28;20024;-67
2021/04/03 05:56:18;;;;;;;36.08;9.68;;;;;;;;;;5078814;28;20043;-66
2021/04/03 05:58:44;;;;;;;28.65;6.50;;;;;;;;;;5096918;28;20020;-66
2021/04/03 06:01:09;;;;;;;41.00;7.82;;;;;;;;;;5096768;28;20032;-66
2021/04/03 06:03:34;;;;;;;33.63;6.53;;;;;;;;;;5096905;28;20028;-66
2021/04/03 06:06:00;;;;;;;36.80;7.20;;;;;;;;;;5096695;28;20019;-66
2021/04/03 06:08:29;;;;;;;29.08;5.95;;;;;;;;;;5096784;28;20024;-66
2021/04/03 06:11:13;;;;;;;37.92;6.10;;;;;;;;;;5096554;28;20035;-66
2021/04/03 06:13:39;;;;;;;31.13;5.93;;;;;;;;;;5096635;28;20024;-66
2021/04/03 06:16:33;;;;;;;22.65;6.63;;;;;;;;;;5096609;28;20039;-66
2021/04/03 06:19:15;;;;;;;32.28;6.68;;;;;;;;;;5074454;28;20093;-67
2021/04/03 06:21:43;;;;;;;25.85;5.78;;;;;;;;;;5096371;28;20123;-66
2021/04/03 06:24:16;;;;;;;24.25;5.50;;;;;;;;;;5096518;28;20063;-66
2021/04/03 06:26:50;;;;;;;23.20;5.57;;;;;;;;;;5096389;28;20035;-66
2021/04/03 06:29:27;;;;;;;32.85;6.43;;;;;;;;;;5096206;28;20035;-66
2021/04/03 06:31:54;;;;;;;27.17;5.63;;;;;;;;;;5096266;28;20032;-64
2021/04/03 06:34:25;;;;;;;24.38;4.97;;;;;;;;;;5096084;28;20081;-64
2021/04/03 06:36:51;;;;;;;19.00;5.18;;;;;;;;;;5096224;28;20039;-64
2021/04/03 06:39:16;;;;;;;24.13;4.03;;;;;;;;;;5096163;28;20127;-64
2021/04/03 06:41:41;;;;;;;30.33;4.97;;;;;;;;;;5095657;28;20039;-65
2021/04/03 06:44:08;;;;;;;27.25;6.28;;;;;;;;;;5095991;28;20028;-65
2021/04/03 06:46:34;;;;;;;13.73;5.10;;;;;;;;;;5089360;28;20030;-64
2021/04/03 06:49:00;;;;;;;27.80;4.03;;;;;;;;;;5077717;28;20069;-64
2021/04/03 06:51:26;;;;;;;22.52;4.75;;;;;;;;;;5057679;28;20062;-64
2021/04/03 06:53:52;;;;;;;21.25;3.70;;;;;;;;;;5075989;28;20016;-65
2021/04/03 06:56:20;;;;;;;28.75;5.90;;;;;;;;;;5075599;28;20057;-64
2021/04/03 06:58:46;;;;;;;20.13;4.85;;;;;;;;;;5075229;28;20608;-66
2021/04/03 07:01:12;;;;;;;22.27;4.22;;;;;;;;;;5075327;28;20079;-66
2021/04/03 07:03:41;;;;;;;20.02;3.83;;;;;;;;;;5075595;28;20032;-66
2021/04/03 07:06:07;;;;;;;18.48;4.32;;;;;;;;;;5075253;28;20055;-66
2021/04/03 07:08:34;;;;;;;19.30;4.15;;;;;;;;;;5075365;28;20012;-67
2021/04/03 07:10:59;;;;;;;16.13;3.75;;;;;;;;;;5075205;28;20028;-66
2021/04/03 07:13:24;;;;;;;23.58;4.55;;;;;;;;;;5075210;28;20036;-66
2021/04/03 07:15:52;;;;;;;18.15;4.20;;;;;;;;;;5074793;28;20012;-66
2021/04/03 07:18:17;;;;;;;23.10;4.47;;;;;;;;;;5075314;28;20036;-66
2021/04/03 07:20:43;;;;;;;26.70;4.80;;;;;;;;;;5075041;28;20431;-67
2021/04/03 07:23:10;;;;;;;16.00;4.20;;;;;;;;;;5074960;28;20107;-66
2021/04/03 07:25:37;;;;;;;17.92;4.03;;;;;;;;;;5074893;28;20024;-66
2021/04/03 07:28:04;;;;;;;17.20;3.40;;;;;;;;;;5075045;28;20059;-64
2021/04/03 07:30:35;;;;;;;32.50;5.47;;;;;;;;;;5074846;28;20025;-64
2021/04/03 07:33:07;;;;;;;20.20;2.97;;;;;;;;;;5074803;28;20031;-64
2021/04/03 07:35:35;;;;;;;20.90;3.90;;;;;;;;;;5058140;28;20054;-65
2021/04/03 07:38:06;;;;;;;24.02;4.18;;;;;;;;;;5094777;28;20029;-64
2021/04/03 07:40:36;;;;;;;22.40;4.32;;;;;;;;;;5094401;28;20496;-64
2021/04/03 07:43:02;;;;;;;21.35;4.25;;;;;;;;;;5094810;28;20032;-64
2021/04/03 07:45:30;;;;;;;27.15;3.92;;;;;;;;;;5094605;28;20032;-64
2021/04/03 07:47:56;;;;;;;18.73;4.15;;;;;;;;;;5094793;28;20020;-64
2021/04/03 07:50:39;;;;;;;14.05;3.72;;;;;;;;;;5094587;28;20502;-64
2021/04/03 07:53:05;;;;;;;20.75;3.58;;;;;;;;;;5095006;28;20433;-64
2021/04/03 07:55:31;;;;;;;21.35;3.75;;;;;;;;;;5094610;28;20020;-64
2021/04/03 07:58:15;;;;;;;22.05;4.15;;;;;;;;;;5094602;28;20039;-64
2021/04/03 08:00:40;;;;;;;20.13;3.35;;;;;;;;;;5093729;28;20460;-65
2021/04/03 08:03:06;;;;;;;9.57;3.15;;;;;;;;;;5093974;28;20039;-64
2021/04/03 08:05:31;;;;;;;20.23;3.47;;;;;;;;;;5090022;28;20023;-66
2021/04/03 08:07:57;;;;;;;15.68;3.50;;;;;;;;;;5091911;28;20028;-66
2021/04/03 08:10:23;;;;;;;17.20;3.15;;;;;;;;;;5091281;28;20036;-66
2021/04/03 08:12:48;;;;;;;24.35;5.05;;;;;;;;;;5091608;28;20452;-66
2021/04/03 08:15:17;;;;;;;17.30;3.40;;;;;;;;;;5090914;28;20077;-66
2021/04/03 08:17:50;;;;;;;16.27;4.32;;;;;;;;;;5091938;28;20388;-67
2021/04/03 08:20:15;;;;;;;24.30;7.40;;;;;;;;;;5092046;28;20036;-66
2021/04/03 08:22:57;;;;;;;25.20;3.47;;;;;;;;;;5091184;28;20067;-66
2021/04/03 08:25:22;;;;;;;22.75;4.30;;;;;;;;;;5085354;28;20024;-67
2021/04/03 08:27:47;;;;;;;22.65;3.92;;;;;;;;;;5091377;28;20515;-66
2021/04/03 08:30:22;;;;;;;20.45;4.57;;;;;;;;;;5092406;28;20082;-66
2021/04/03 08:33:03;;;;;;;19.33;3.30;;;;;;;;;;5102591;28;20114;-66
2021/04/03 08:35:29;;;;;;;18.45;3.83;;;;;;;;;;5104562;28;20045;-66
2021/04/03 08:38:14;;;;;;;23.73;5.57;;;;;;;;;;5105548;28;20111;-66
2021/04/03 08:40:40;;;;;;;15.05;3.58;;;;;;;;;;5107211;28;20032;-67
2021/04/03 08:43:05;;;;;;;17.92;3.28;;;;;;;;;;5107751;28;20043;-67
2021/04/03 08:45:37;;;;;;;23.75;4.78;;;;;;;;;;5108858;28;20039;-67
2021/04/03 08:48:06;;;;;;;11.38;2.55;;;;;;;;;;5103865;28;20383;-66
2021/04/03 08:50:32;;;;;;;15.13;3.05;;;;;;;;;;5106607;28;20027;-67
2021/04/03 08:53:00;;;;;;;18.52;3.58;;;;;;;;;;5106471;28;20046;-66
2021/04/03 08:55:26;;;;;;;23.98;3.65;;;;;;;;;;5106486;28;20023;-66
2021/04/03 08:57:52;;;;;;;25.98;3.78;;;;;;;;;;5106128;28;20031;-67
2021/04/03 09:00:20;;;;;;;18.17;3.70;;;;;;;;;;5105460;28;20160;-67
2021/04/03 09:02:46;;;;;;;20.23;3.15;;;;;;;;;;5106778;28;20023;-67
2021/04/03 09:05:12;;;;;;;14.75;2.85;;;;;;;;;;5106057;28;20696;-66
2021/04/03 09:07:38;;;;;;;17.17;2.97;;;;;;;;;;5106180;28;20031;-67
2021/04/03 09:10:03;;;;;;;26.73;3.60;;;;;;;;;;5105902;28;20134;-67
2021/04/03 09:12:28;;;;;;;28.08;4.18;;;;;;;;;;5105172;28;20032;-67
2021/04/03 09:14:54;;;;;;;14.35;3.20;;;;;;;;;;5106538;28;20153;-66
2021/04/03 09:17:19;;;;;;;13.48;2.55;;;;;;;;;;5106405;28;20027;-67
2021/04/03 09:19:45;;;;;;;16.38;3.00;;;;;;;;;;5105298;28;20032;-67
2021/04/03 09:22:19;;;;;;;14.23;3.03;;;;;;;;;;5105581;28;20134;-67
2021/04/03 09:24:56;;;;;;;26.83;3.78;;;;;;;;;;5104759;28;20118;-67
2021/04/03 09:27:21;;;;;;;17.83;4.03;;;;;;;;;;5105620;28;20161;-67
2021/04/03 09:29:54;;;;;;;15.18;3.25;;;;;;;;;;5105429;28;20130;-67
2021/04/03 09:32:20;;;;;;;13.70;2.50;;;;;;;;;;5105370;28;20031;-67
2021/04/03 09:34:45;;;;;;;17.67;4.03;;;;;;;;;;5105929;28;20367;-67
2021/04/03 09:37:30;;;;;;;16.23;2.90;;;;;;;;;;5106205;28;20387;-67
2021/04/03 09:39:56;;;;;;;14.48;3.15;;;;;;;;;;5105828;28;20447;-67
2021/04/03 09:42:22;;;;;;;22.08;4.15;;;;;;;;;;5106023;28;20130;-66
2021/04/03 09:44:48;;;;;;;27.73;4.13;;;;;;;;;;5109272;28;20032;-66
2021/04/03 09:47:14;;;;;;;17.17;4.13;;;;;;;;;;5113201;28;20027;-66
2021/04/03 09:49:40;;;;;;;17.58;5.32;;;;;;;;;;5113180;28;20035;-67
2021/04/03 09:52:06;;;;;;;18.20;4.82;;;;;;;;;;5112690;28;20108;-67
2021/04/03 09:54:32;;;;;;;20.77;5.80;;;;;;;;;;5113077;28;20094;-67
2021/04/03 09:56:57;;;;;;;24.85;6.72;;;;;;;;;;5113012;28;20214;-65
2021/04/03 09:59:22;;;;;;;27.30;6.60;;;;;;;;;;5112454;28;20081;-65
2021/04/03 10:01:49;;;;;;;21.70;4.78;;;;;;;;;;5112706;28;20023;-67
2021/04/03 10:04:14;;;;;;;20.08;4.38;;;;;;;;;;5112563;28;20425;-67
2021/04/03 10:06:40;;;;;;;25.90;5.78;;;;;;;;;;5112968;28;20027;-67
2021/04/03 10:09:05;;;;;;;16.83;4.85;;;;;;;;;;5113142;28;20370;-67
2021/04/03 10:11:30;;;;;;;19.90;4.47;;;;;;;;;;5112890;28;20027;-67
2021/04/03 10:13:56;;;;;;;18.98;5.65;;;;;;;;;;5112864;28;20460;-65
2021/04/03 10:16:21;;;;;;;19.05;6.57;;;;;;;;;;5112711;28;20098;-65
2021/04/03 10:18:46;;;;;;;28.90;7.35;;;;;;;;;;5113353;28;20024;-65
2021/04/03 10:21:13;;;;;;;23.88;5.72;;;;;;;;;;5112963;28;20035;-65
2021/04/03 10:23:38;;;;;;;23.23;7.32;;;;;;;;;;5114477;28;20348;-65
2021/04/03 10:26:03;;;;;;;27.20;6.18;;;;;;;;;;5116871;28;20042;-65
2021/04/03 10:28:29;;;;;;;20.02;5.75;;;;;;;;;;5110492;28;20032;-67
2021/04/03 10:30:54;;;;;;;19.65;4.95;;;;;;;;;;5112102;28;20020;-67
2021/04/03 10:33:19;;;;;;;16.85;5.15;;;;;;;;;;5111966;28;20027;-67
2021/04/03 10:35:45;;;;;;;28.92;5.72;;;;;;;;;;5097096;28;20039;-67
2021/04/03 10:38:10;;;;;;;23.00;6.75;;;;;;;;;;5087355;28;20356;-67
2021/04/03 10:40:35;;;;;;;21.38;5.28;;;;;;;;;;5083229;28;20379;-67
2021/04/03 10:43:01;;;;;;;19.52;5.15;;;;;;;;;;5079957;28;20036;-67
2021/04/03 10:45:26;;;;;;;20.55;5.45;;;;;;;;;;5071788;28;20115;-67
2021/04/03 10:47:51;;;;;;;20.95;4.97;;;;;;;;;;5092609;28;20460;-67
2021/04/03 10:50:17;;;;;;;17.92;5.45;;;;;;;;;;5092615;28;20352;-67
2021/04/03 10:52:42;;;;;;;26.83;5.15;;;;;;;;;;5092648;28;20444;-67
2021/04/03 10:55:07;;;;;;;28.27;7.75;;;;;;;;;;5093151;28;20032;-67
2021/04/03 10:57:33;;;;;;;23.05;5.72;;;;;;;;;;5093345;28;20085;-67
2021/04/03 10:59:58;;;;;;;17.27;5.32;;;;;;;;;;5091930;28;20116;-67
2021/04/03 11:02:24;;;;;;;19.20;5.90;;;;;;;;;;5092258;28;20039;-67
2021/04/03 11:04:49;;;;;;;20.38;5.95;;;;;;;;;;5087932;28;20047;-67
2021/04/03 11:07:15;;;;;;;21.00;5.65;;;;;;;;;;5090525;28;20024;-67
2021/04/03 11:09:40;;;;;;;23.15;5.60;;;;;;;;;;5092479;28;20039;-67
2021/04/03 11:12:05;;;;;;;28.38;5.78;;;;;;;;;;5091974;28;20463;-67
2021/04/03 11:14:31;;;;;;;17.95;4.75;;;;;;;;;;5090659;28;20035;-67
2021/04/03 11:16:56;;;;;;;20.23;4.72;;;;;;;;;;5091318;28;20073;-67
2021/04/03 11:19:21;;;;;;;19.17;5.15;;;;;;;;;;5091617;28;20036;-67
2021/04/03 11:21:47;;;;;;;16.20;4.25;;;;;;;;;;5091784;28;20032;-67
2021/04/03 11:24:13;;;;;;;18.25;4.18;;;;;;;;;;5091739;28;20340;-67
2021/04/03 11:26:38;;;;;;;19.13;5.22;;;;;;;;;;5090851;28;20047;-67
2021/04/03 11:29:03;;;;;;;16.33;4.47;;;;;;;;;;5091687;28;20020;-67
2021/04/03 11:31:28;;;;;;;19.02;4.80;;;;;;;;;;5089462;28;20380;-67
2021/04/03 11:33:54;;;;;;;15.15;4.57;;;;;;;;;;5091558;28;20035;-67
2021/04/03 11:36:20;;;;;;;17.75;3.92;;;;;;;;;;5089276;28;20028;-67
2021/04/03 11:38:45;;;;;;;23.00;4.78;;;;;;;;;;5099318;28;20050;-67
2021/04/03 11:41:10;;;;;;;25.70;4.78;;;;;;;;;;5101302;28;20028;-67
2021/04/03 11:43:36;;;;;;;16.65;4.88;;;;;;;;;;5091370;28;20051;-67
2021/04/03 11:46:01;;;;;;;22.70;4.30;;;;;;;;;;5099353;28;20027;-67
2021/04/03 11:48:27;;;;;;;24.23;4.85;;;;;;;;;;5092099;28;20467;-67
2021/04/03 11:50:52;;;;;;;14.15;4.57;;;;;;;;;;5093481;28;20374;-67
2021/04/03 11:53:18;;;;;;;18.40;4.15;;;;;;;;;;5089130;28;20030;-67
2021/04/03 11:55:43;;;;;;;16.90;3.95;;;;;;;;;;5091074;28;20042;-68
2021/04/03 11:58:08;;;;;;;19.27;4.45;;;;;;;;;;5091138;28;20025;-67
2021/04/03 12:00:34;;;;;;;14.75;3.67;;;;;;;;;;5091514;28;20081;-67
2021/04/03 12:02:59;;;;;;;15.55;4.05;;;;;;;;;;5100295;28;20082;-67
2021/04/03 12:05:24;;;;;;;22.48;4.38;;;;;;;;;;5095531;28;20364;-67
2021/04/03 12:07:50;;;;;;;19.95;4.55;;;;;;;;;;5108643;28;20360;-67
2021/04/03 12:10:15;;;;;;;15.65;3.17;;;;;;;;;;5105386;28;20100;-67
2021/04/03 12:12:41;;;;;;;14.50;3.95;;;;;;;;;;5088886;28;20028;-67
2021/04/03 12:15:08;;;;;;;20.02;4.10;;;;;;;;;;5096001;28;20528;-67
2021/04/03 12:17:34;;;;;;;19.13;3.83;;;;;;;;;;5089809;28;20043;-67
2021/04/03 12:19:59;;;;;;;17.15;4.03;;;;;;;;;;5099629;28;20384;-67
2021/04/03 12:22:24;;;;;;;25.27;5.95;;;;;;;;;;5074667;28;20388;-67
2021/04/03 12:24:49;;;;;;;23.75;4.20;;;;;;;;;;5097669;28;20034;-67
2021/04/03 12:27:15;;;;;;;13.30;3.88;;;;;;;;;;5098899;28;20026;-67
2021/04/03 12:29:40;;;;;;;19.73;3.97;;;;;;;;;;5093184;28;20035;-67
2021/04/03 12:32:06;;;;;;;19.10;4.38;;;;;;;;;;5094866;28;20067;-67
2021/04/03 12:34:31;;;;;;;21.02;4.35;;;;;;;;;;5097852;28;20439;-67
2021/04/03 12:36:56;;;;;;;15.48;4.10;;;;;;;;;;5099832;28;20461;-67
2021/04/03 12:39:22;;;;;;;18.60;4.97;;;;;;;;;;5103891;28;20124;-67
2021/04/03 12:41:47;;;;;;;22.23;4.60;;;;;;;;;;5099755;28;20376;-67
2021/04/03 12:44:12;;;;;;;21.10;4.13;;;;;;;;;;5085532;28;20064;-67
2021/04/03 12:46:37;;;;;;;18.65;4.75;;;;;;;;;;5081382;28;20026;-67
2021/04/03 12:49:03;;;;;;;17.38;5.05;;;;;;;;;;5091526;28;20024;-67
2021/04/03 12:51:28;;;;;;;21.30;4.15;;;;;;;;;;5109566;28;20111;-67
2021/04/03 12:53:53;;;;;;;26.75;5.80;;;;;;;;;;5091081;28;20032;-67
2021/04/03 12:56:18;;;;;;;24.35;4.68;;;;;;;;;;5090294;28;20093;-67
2021/04/03 12:58:44;;;;;;;20.48;5.88;;;;;;;;;;5089875;28;20471;-67
2021/04/03 13:01:09;;;;;;;23.85;5.18;;;;;;;;;;5089337;28;20043;-67
2021/04/03 13:03:34;;;;;;;19.05;4.95;;;;;;;;;;5093814;28;20121;-67
2021/04/03 13:06:01;;;;;;;23.70;5.30;;;;;;;;;;5073284;28;20028;-67
2021/04/03 13:08:27;;;;;;;20.23;4.38;;;;;;;;;;5081799;28;20051;-67
2021/04/03 13:10:52;;;;;;;20.17;4.05;;;;;;;;;;5078441;28;20016;-67
2021/04/03 13:13:17;;;;;;;11.70;4.32;;;;;;;;;;5082845;28;20062;-67
2021/04/03 13:15:43;;;;;;;20.98;6.82;;;;;;;;;;5094493;28;20096;-67
2021/04/03 13:18:08;;;;;;;19.65;5.60;;;;;;;;;;5087775;28;20020;-67
2021/04/03 13:20:34;;;;;;;20.77;5.47;;;;;;;;;;5088289;28;20032;-67
2021/04/03 13:23:03;;;;;;;17.75;5.20;;;;;;;;;;5087009;28;20083;-67
2021/04/03 13:25:29;;;;;;;24.65;5.45;;;;;;;;;;5087173;28;20460;-67
2021/04/03 13:27:54;;;;;;;16.55;5.20;;;;;;;;;;5086957;28;20035;-67
2021/04/03 13:30:20;;;;;;;18.67;5.40;;;;;;;;;;5098588;28;20471;-67
2021/04/03 13:32:45;;;;;;;13.65;4.88;;;;;;;;;;5089373;28;20487;-67
2021/04/03 13:35:11;;;;;;;14.38;4.72;;;;;;;;;;5096179;28;20525;-67
2021/04/03 13:37:36;;;;;;;19.70;5.22;;;;;;;;;;5088717;28;20051;-67
2021/04/03 13:40:02;;;;;;;21.45;5.70;;;;;;;;;;5087069;28;20052;-67
2021/04/03 13:42:27;;;;;;;17.77;4.80;;;;;;;;;;5087371;28;20115;-67
2021/04/03 13:44:53;;;;;;;17.13;4.78;;;;;;;;;;5087915;28;20085;-67
2021/04/03 13:47:18;;;;;;;29.70;5.82;;;;;;;;;;5087028;28;20015;-67
2021/04/03 13:49:43;;;;;;;12.63;4.72;;;;;;;;;;5094004;28;20074;-67
2021/04/03 13:52:09;;;;;;;14.38;3.65;;;;;;;;;;5069197;28;20036;-67
2021/04/03 13:54:34;;;;;;;12.73;4.55;;;;;;;;;;5087520;28;20516;-67
2021/04/03 13:56:59;;;;;;;18.65;5.18;;;;;;;;;;5085909;28;20036;-67
2021/04/03 13:59:25;;;;;;;19.20;5.70;;;;;;;;;;5090190;28;20387;-67
2021/04/03 14:01:50;;;;;;;14.00;3.80;;;;;;;;;;5090610;28;20131;-67
2021/04/03 14:04:16;;;;;;;17.73;4.85;;;;;;;;;;5093934;28;20028;-67
2021/04/03 14:06:41;;;;;;;18.88;6.00;;;;;;;;;;5079368;28;20035;-67
2021/04/03 14:09:06;;;;;;;16.65;5.40;;;;;;;;;;5074898;28;20108;-67
2021/04/03 14:11:32;;;;;;;19.70;5.53;;;;;;;;;;5078355;28;20066;-67
2021/04/03 14:13:57;;;;;;;27.13;6.45;;;;;;;;;;5092854;28;20074;-67
2021/04/03 14:16:22;;;;;;;22.75;5.97;;;;;;;;;;5094307;28;20349;-67
2021/04/03 14:18:47;;;;;;;21.80;5.30;;;;;;;;;;5093302;28;20437;-67
2021/04/03 14:21:13;;;;;;;21.70;5.35;;;;;;;;;;5079895;28;20164;-67
2021/04/03 14:23:38;;;;;;;22.10;5.45;;;;;;;;;;5091049;28;20066;-67